sensor_id;sensor_type;location;lat;lon;timestamp;pressure;altitude;pressure_sealevel;temperature;humidity
68145;BME280;55400;51.824;-0.196;2023-05-01T00:00:41;100804.6;;;14.44;58.83
68145;BME280;55400;51.824;-0.196;2023-05-01T00:04:41;100799.98000000001;;;14.42;58.92
68145;BME280;55400;51.824;-0.196;2023-05-01T00:08:41;100801.48000000001;;;14.40;58.87
68145;BME280;55400;51.824;-0.196;2023-05-01T00:12:41;100798.58;;;14.37;58.88
68145;BME280;55400;51.824;-0.196;2023-05-01T00:16:41;100795.73000000001;;;14.36;58.92
68145;BME280;55400;51.824;-0.196;2023-05-01T00:20:41;100794.09000000001;;;14.33;59.10
68145;BME280;55400;51.824;-0.196;2023-05-01T00:24:41;100794.09000000001;;;14.30;59.04
68145;BME280;55400;51.824;-0.196;2023-05-01T00:28:41;100789.81;;;14.27;59.32
68145;BME280;55400;51.824;-0.196;2023-05-01T00:32:41;100783.79;;;14.26;59.32
68145;BME280;55400;51.824;-0.196;2023-05-01T00:36:41;100783.87;;;14.28;59.41
68145;BME280;55400;51.824;-0.196;2023-05-01T00:40:41;100775.34000000001;;;14.26;59.51
68145;BME280;55400;51.824;-0.196;2023-05-01T00:52:41;100756.86;;;14.21;59.79
68145;BME280;55400;51.824;-0.196;2023-05-01T00:56:41;100756.86;;;14.19;59.79
68145;BME280;55400;51.824;-0.196;2023-05-01T01:00:41;100752.86;;;14.17;59.82
68145;BME280;55400;51.824;-0.196;2023-05-01T01:04:42;100743.97;;;14.15;60.16
68145;BME280;55400;51.824;-0.196;2023-05-01T01:08:42;100743.97;;;14.16;60.41
68145;BME280;55400;51.824;-0.196;2023-05-01T01:12:43;100743.62999999999;;;14.13;60.35
68145;BME280;55400;51.824;-0.196;2023-05-01T01:16:44;100731.52;;;14.06;60.35
68145;BME280;55400;51.824;-0.196;2023-05-01T01:20:42;100724.58;;;14.01;60.35
68145;BME280;55400;51.824;-0.196;2023-05-01T01:24:45;100724.58;;;13.98;60.47
68145;BME280;55400;51.824;-0.196;2023-05-01T01:28:48;100711.6;;;13.95;60.68
68145;BME280;55400;51.824;-0.196;2023-05-01T01:36:45;100696.44;;;13.91;60.68
68145;BME280;55400;51.824;-0.196;2023-05-01T01:40:43;100693.92;;;13.84;60.54
68145;BME280;55400;51.824;-0.196;2023-05-01T01:44:44;100688.48000000001;;;13.76;60.83
68145;BME280;55400;51.824;-0.196;2023-05-01T01:48:42;100685.38;;;13.65;61.19
68145;BME280;55400;51.824;-0.196;2023-05-01T01:52:41;100681.87000000001;;;13.58;61.19
68145;BME280;55400;51.824;-0.196;2023-05-01T01:56:41;100681.87000000001;;;13.52;61.63
68145;BME280;55400;51.824;-0.196;2023-05-01T02:00:42;100683.06;;;13.41;61.71
68145;BME280;55400;51.824;-0.196;2023-05-01T02:04:41;100680.48999999999;;;13.36;62.15
68145;BME280;55400;51.824;-0.196;2023-05-01T02:08:41;100676.12000000001;;;13.28;61.95
68145;BME280;55400;51.824;-0.196;2023-05-01T02:12:41;100676.28;;;13.29;62.83
68145;BME280;55400;51.824;-0.196;2023-05-01T02:16:41;100670.48999999999;;;13.28;62.81
68145;BME280;55400;51.824;-0.196;2023-05-01T02:20:41;100663.64;;;13.23;62.85
68145;BME280;55400;51.824;-0.196;2023-05-01T02:24:41;100662.81999999999;;;13.20;62.96
68145;BME280;55400;51.824;-0.196;2023-05-01T02:28:41;100662.81999999999;;;13.14;62.96
68145;BME280;55400;51.824;-0.196;2023-05-01T02:32:41;100656.26999999999;;;13.11;63.62
68145;BME280;55400;51.824;-0.196;2023-05-01T02:36:41;100656.19;;;13.08;63.62
68145;BME280;55400;51.824;-0.196;2023-05-01T02:40:42;100648.77;;;13.09;63.98
68145;BME280;55400;51.824;-0.196;2023-05-01T02:44:43;100648.27;;;13.07;64.15
68145;BME280;55400;51.824;-0.196;2023-05-01T02:48:41;100645.56;;;13.09;64.53
68145;BME280;55400;51.824;-0.196;2023-05-01T02:52:41;100643.15000000001;;;13.07;64.53
68145;BME280;55400;51.824;-0.196;2023-05-01T02:56:41;100643.15000000001;;;13.04;64.68
68145;BME280;55400;51.824;-0.196;2023-05-01T03:00:42;100644.58;;;13.03;64.89
68145;BME280;55400;51.824;-0.196;2023-05-01T03:04:42;100641.08;;;13.01;64.97
68145;BME280;55400;51.824;-0.196;2023-05-01T03:08:42;100639.01;;;12.96;65.14
68145;BME280;55400;51.824;-0.196;2023-05-01T03:12:41;100639.01;;;12.95;65.33
68145;BME280;55400;51.824;-0.196;2023-05-01T03:16:42;100639.09;;;12.96;65.36
68145;BME280;55400;51.824;-0.196;2023-05-01T03:20:49;100639.09;;;12.91;65.35
68145;BME280;55400;51.824;-0.196;2023-05-01T03:24:42;100635.16;;;12.85;65.39
68145;BME280;55400;51.824;-0.196;2023-05-01T03:28:41;100632.75;;;12.83;65.64
68145;BME280;55400;51.824;-0.196;2023-05-01T03:32:42;100632.75;;;12.79;65.50
68145;BME280;55400;51.824;-0.196;2023-05-01T03:36:42;100634.93999999999;;;12.76;65.94
68145;BME280;55400;51.824;-0.196;2023-05-01T03:40:42;100634.93999999999;;;12.80;66.13
68145;BME280;55400;51.824;-0.196;2023-05-01T03:44:42;100637.37999999999;;;12.85;66.11
68145;BME280;55400;51.824;-0.196;2023-05-01T03:52:42;100632.37000000001;;;12.83;65.55
68145;BME280;55400;51.824;-0.196;2023-05-01T03:56:42;100632.37000000001;;;12.84;65.77
68145;BME280;55400;51.824;-0.196;2023-05-01T04:00:42;100638.73;;;12.83;66.07
68145;BME280;55400;51.824;-0.196;2023-05-01T04:04:42;100638.73;;;12.80;66.07
68145;BME280;55400;51.824;-0.196;2023-05-01T04:08:42;100638.64;;;12.79;66.18
68145;BME280;55400;51.824;-0.196;2023-05-01T04:12:42;100638.45;;;12.80;66.18
68145;BME280;55400;51.824;-0.196;2023-05-01T04:16:42;100637.7;;;12.78;66.23
68145;BME280;55400;51.824;-0.196;2023-05-01T04:20:42;100637.7;;;12.75;65.72
68145;BME280;55400;51.824;-0.196;2023-05-01T04:24:42;100642.88;;;12.73;66.00
68145;BME280;55400;51.824;-0.196;2023-05-01T04:28:42;100642.88;;;12.66;65.70
68145;BME280;55400;51.824;-0.196;2023-05-01T04:32:42;100637.08;;;12.57;66.23
68145;BME280;55400;51.824;-0.196;2023-05-01T04:36:42;100636.17;;;12.56;66.23
68145;BME280;55400;51.824;-0.196;2023-05-01T04:40:42;100636.41;;;12.59;66.40
68145;BME280;55400;51.824;-0.196;2023-05-01T04:44:42;100643.59;;;12.60;66.37
68145;BME280;55400;51.824;-0.196;2023-05-01T04:48:42;100646.57999999999;;;12.52;66.35
68145;BME280;55400;51.824;-0.196;2023-05-01T04:52:42;100651.37;;;12.46;66.15
68145;BME280;55400;51.824;-0.196;2023-05-01T04:56:42;100651.37;;;12.43;66.15
68145;BME280;55400;51.824;-0.196;2023-05-01T05:00:42;100647.09;;;12.38;66.46
68145;BME280;55400;51.824;-0.196;2023-05-01T05:04:42;100650.59999999999;;;12.35;66.32
68145;BME280;55400;51.824;-0.196;2023-05-01T05:08:42;100650.59999999999;;;12.29;66.41
68145;BME280;55400;51.824;-0.196;2023-05-01T05:20:42;100655.83;;;12.33;66.46
68145;BME280;55400;51.824;-0.196;2023-05-01T05:24:42;100662.87;;;12.34;66.36
68145;BME280;55400;51.824;-0.196;2023-05-01T05:28:42;100665.44;;;12.36;66.71
68145;BME280;55400;51.824;-0.196;2023-05-01T05:32:42;100668.05;;;12.38;66.61
68145;BME280;55400;51.824;-0.196;2023-05-01T05:36:42;100669.64;;;12.40;66.61
68145;BME280;55400;51.824;-0.196;2023-05-01T05:40:42;100666.66;;;12.41;66.73
68145;BME280;55400;51.824;-0.196;2023-05-01T05:44:42;100666.27;;;12.47;66.60
68145;BME280;55400;51.824;-0.196;2023-05-01T05:52:42;100665.77;;;12.43;66.53
68145;BME280;55400;51.824;-0.196;2023-05-01T05:56:42;100660.94;;;12.47;66.74
68145;BME280;55400;51.824;-0.196;2023-05-01T06:00:42;100667.25;;;12.50;66.73
68145;BME280;55400;51.824;-0.196;2023-05-01T06:04:42;100666.09;;;12.53;66.73
68145;BME280;55400;51.824;-0.196;2023-05-01T06:12:42;100664.45;;;12.55;66.64
68145;BME280;55400;51.824;-0.196;2023-05-01T06:16:42;100670.31;;;12.59;66.94
68145;BME280;55400;51.824;-0.196;2023-05-01T06:20:42;100668.24;;;12.58;66.75
68145;BME280;55400;51.824;-0.196;2023-05-01T06:24:42;100670.79;;;12.59;66.58
68145;BME280;55400;51.824;-0.196;2023-05-01T06:28:42;100668.42;;;12.58;66.70
68145;BME280;55400;51.824;-0.196;2023-05-01T06:32:42;100674.51999999999;;;12.60;66.54
68145;BME280;55400;51.824;-0.196;2023-05-01T06:36:42;100674.51999999999;;;12.65;66.64
68145;BME280;55400;51.824;-0.196;2023-05-01T06:40:42;100670.04;;;12.69;66.58
68145;BME280;55400;51.824;-0.196;2023-05-01T06:48:42;100670.97;;;12.68;66.49
68145;BME280;55400;51.824;-0.196;2023-05-01T06:56:42;100672.43999999999;;;12.67;66.88
68145;BME280;55400;51.824;-0.196;2023-05-01T07:00:42;100670.89;;;12.70;67.14
68145;BME280;55400;51.824;-0.196;2023-05-01T07:04:42;100672.48;;;12.73;67.13
68145;BME280;55400;51.824;-0.196;2023-05-01T07:08:42;100672.64;;;12.76;67.13
68145;BME280;55400;51.824;-0.196;2023-05-01T07:12:42;100671.95;;;12.77;67.03
68145;BME280;55400;51.824;-0.196;2023-05-01T07:16:42;100674.19;;;12.79;67.07
68145;BME280;55400;51.824;-0.196;2023-05-01T07:24:42;100680.55;;;12.85;67.22
68145;BME280;55400;51.824;-0.196;2023-05-01T07:28:42;100684.05;;;12.91;67.22
68145;BME280;55400;51.824;-0.196;2023-05-01T07:32:42;100682.61;;;12.96;67.10
68145;BME280;55400;51.824;-0.196;2023-05-01T07:36:42;100687.76000000001;;;12.98;66.82
68145;BME280;55400;51.824;-0.196;2023-05-01T07:40:42;100693.6;;;12.96;66.82
68145;BME280;55400;51.824;-0.196;2023-05-01T07:44:42;100693.6;;;12.92;66.93
68145;BME280;55400;51.824;-0.196;2023-05-01T07:52:42;100700.06;;;12.91;66.88
68145;BME280;55400;51.824;-0.196;2023-05-01T08:00:42;100703.44;;;13.02;67.03
68145;BME280;55400;51.824;-0.196;2023-05-01T08:04:42;100701.36;;;13.11;67.03
68145;BME280;55400;51.824;-0.196;2023-05-01T08:08:43;100700.01999999999;;;13.25;66.83
68145;BME280;55400;51.824;-0.196;2023-05-01T08:12:42;100700.01999999999;;;13.38;66.93
68145;BME280;55400;51.824;-0.196;2023-05-01T08:16:43;100702.34;;;13.53;67.63
68145;BME280;55400;51.824;-0.196;2023-05-01T08:20:42;100700.62000000001;;;13.60;66.47
68145;BME280;55400;51.824;-0.196;2023-05-01T08:24:43;100700.62000000001;;;13.64;66.58
68145;BME280;55400;51.824;-0.196;2023-05-01T08:28:42;100702.62;;;13.66;66.64
68145;BME280;55400;51.824;-0.196;2023-05-01T08:36:43;100700.7;;;13.65;66.07
68145;BME280;55400;51.824;-0.196;2023-05-01T08:40:44;100703.16;;;13.71;66.10
68145;BME280;55400;51.824;-0.196;2023-05-01T08:44:42;100703.16;;;13.79;65.85
68145;BME280;55400;51.824;-0.196;2023-05-01T08:48:42;100707.08;;;13.83;65.68
68145;BME280;55400;51.824;-0.196;2023-05-01T08:52:42;100707.08;;;13.85;65.72
68145;BME280;55400;51.824;-0.196;2023-05-01T08:56:43;100705.52;;;13.91;65.79
68145;BME280;55400;51.824;-0.196;2023-05-01T09:00:42;100703.57;;;13.92;65.98
68145;BME280;55400;51.824;-0.196;2023-05-01T09:04:42;100712.94;;;13.93;65.64
68145;BME280;55400;51.824;-0.196;2023-05-01T09:08:43;100721.33;;;14.00;65.79
68145;BME280;55400;51.824;-0.196;2023-05-01T09:12:43;100721.33;;;14.12;65.59
68145;BME280;55400;51.824;-0.196;2023-05-01T09:16:43;100718.52;;;14.14;65.15
68145;BME280;55400;51.824;-0.196;2023-05-01T09:20:42;100718.52;;;14.12;65.18
68145;BME280;55400;51.824;-0.196;2023-05-01T09:24:43;100724.87999999999;;;14.09;65.15
68145;BME280;55400;51.824;-0.196;2023-05-01T09:28:43;100724.87999999999;;;14.16;65.15
68145;BME280;55400;51.824;-0.196;2023-05-01T09:32:43;100730.61;;;14.25;64.87
68145;BME280;55400;51.824;-0.196;2023-05-01T09:36:43;100728.14;;;14.36;64.96
68145;BME280;55400;51.824;-0.196;2023-05-01T09:40:43;100736.99;;;14.49;64.96
68145;BME280;55400;51.824;-0.196;2023-05-01T09:44:43;100736.87999999999;;;14.56;64.29
68145;BME280;55400;51.824;-0.196;2023-05-01T09:48:50;100736.87999999999;;;14.59;64.34
68145;BME280;55400;51.824;-0.196;2023-05-01T09:56:45;100744.25;;;14.69;63.80
68145;BME280;55400;51.824;-0.196;2023-05-01T10:00:46;100744.65;;;14.75;63.53
68145;BME280;55400;51.824;-0.196;2023-05-01T10:04:43;100751.19;;;14.85;63.35
68145;BME280;55400;51.824;-0.196;2023-05-01T10:08:43;100754.19;;;14.83;63.35
68145;BME280;55400;51.824;-0.196;2023-05-01T10:12:43;100753.3;;;14.80;63.35
68145;BME280;55400;51.824;-0.196;2023-05-01T10:16:43;100747.69;;;14.91;63.35
68145;BME280;55400;51.824;-0.196;2023-05-01T10:20:43;100746.45000000001;;;15.00;63.30
68145;BME280;55400;51.824;-0.196;2023-05-01T10:24:43;100749.28;;;15.14;63.30
68145;BME280;55400;51.824;-0.196;2023-05-01T10:28:45;100744.78;;;15.27;62.11
68145;BME280;55400;51.824;-0.196;2023-05-01T10:32:43;100742.64;;;15.36;62.11
68145;BME280;55400;51.824;-0.196;2023-05-01T10:36:43;100742.02;;;15.41;61.34
68145;BME280;55400;51.824;-0.196;2023-05-01T10:40:44;100742.02;;;15.51;60.36
68145;BME280;55400;51.824;-0.196;2023-05-01T10:44:43;100745.17;;;15.70;60.17
68145;BME280;55400;51.824;-0.196;2023-05-01T10:56:43;100740.69;;;16.03;58.54
68145;BME280;55400;51.824;-0.196;2023-05-01T11:00:43;100743.83;;;16.09;58.98
68145;BME280;55400;51.824;-0.196;2023-05-01T11:04:45;100742.21;;;16.12;58.98
68145;BME280;55400;51.824;-0.196;2023-05-01T11:08:43;100732.87;;;16.20;59.32
68145;BME280;55400;51.824;-0.196;2023-05-01T11:12:47;100736.23999999999;;;16.23;57.98
68145;BME280;55400;51.824;-0.196;2023-05-01T11:16:43;100738.7;;;16.24;57.98
68145;BME280;55400;51.824;-0.196;2023-05-01T11:20:44;100733.5;;;16.27;58.04
68145;BME280;55400;51.824;-0.196;2023-05-01T11:24:43;100732.83;;;16.36;57.79
68145;BME280;55400;51.824;-0.196;2023-05-01T11:28:43;100732.83;;;16.39;58.53
68145;BME280;55400;51.824;-0.196;2023-05-01T11:32:43;100737.87;;;16.44;57.83
68145;BME280;55400;51.824;-0.196;2023-05-01T11:36:46;100737.91;;;16.53;57.48
68145;BME280;55400;51.824;-0.196;2023-05-01T11:40:43;100744.12;;;16.48;56.88
68145;BME280;55400;51.824;-0.196;2023-05-01T11:44:43;100751.53;;;16.39;56.88
68145;BME280;55400;51.824;-0.196;2023-05-01T11:48:43;100751.33;;;16.30;57.39
68145;BME280;55400;51.824;-0.196;2023-05-01T11:52:43;100751.33;;;16.19;57.47
68145;BME280;55400;51.824;-0.196;2023-05-01T11:56:43;100755.98;;;16.26;57.99
68145;BME280;55400;51.824;-0.196;2023-05-01T12:00:43;100755.98;;;16.27;57.99
68145;BME280;55400;51.824;-0.196;2023-05-01T12:04:43;100766.18;;;16.30;57.22
68145;BME280;55400;51.824;-0.196;2023-05-01T12:08:43;100757.64;;;16.32;57.59
68145;BME280;55400;51.824;-0.196;2023-05-01T12:12:43;100758.22;;;16.34;57.59
68145;BME280;55400;51.824;-0.196;2023-05-01T12:16:43;100750.25;;;16.43;57.57
68145;BME280;55400;51.824;-0.196;2023-05-01T12:20:44;100750.25;;;16.53;57.24
68145;BME280;55400;51.824;-0.196;2023-05-01T12:24:49;100750.7;;;16.66;57.17
68145;BME280;55400;51.824;-0.196;2023-05-01T12:32:43;100750.55;;;16.68;55.93
68145;BME280;55400;51.824;-0.196;2023-05-01T12:36:51;100747.45;;;16.70;56.21
68145;BME280;55400;51.824;-0.196;2023-05-01T12:40:48;100754.66;;;16.66;56.29
68145;BME280;55400;51.824;-0.196;2023-05-01T12:44:43;100761.08;;;16.61;56.39
68145;BME280;55400;51.824;-0.196;2023-05-01T12:48:43;100767.0;;;16.49;56.39
68145;BME280;55400;51.824;-0.196;2023-05-01T12:52:43;100767.0;;;16.43;55.98
68145;BME280;55400;51.824;-0.196;2023-05-01T12:56:43;100766.09;;;16.42;55.63
68145;BME280;55400;51.824;-0.196;2023-05-01T13:00:44;100767.55;;;16.43;55.63
68145;BME280;55400;51.824;-0.196;2023-05-01T13:04:43;100767.55;;;16.42;55.72
68145;BME280;55400;51.824;-0.196;2023-05-01T13:08:43;100770.67;;;16.36;55.92
68145;BME280;55400;51.824;-0.196;2023-05-01T13:12:43;100770.98;;;16.35;56.23
68145;BME280;55400;51.824;-0.196;2023-05-01T13:16:43;100780.89;;;16.36;56.32
68145;BME280;55400;51.824;-0.196;2023-05-01T13:20:43;100780.89;;;16.52;56.30
68145;BME280;55400;51.824;-0.196;2023-05-01T13:24:43;100780.42;;;16.79;55.55
68145;BME280;55400;51.824;-0.196;2023-05-01T13:28:43;100780.42;;;16.86;55.55
68145;BME280;55400;51.824;-0.196;2023-05-01T13:32:43;100780.94;;;16.84;55.23
68145;BME280;55400;51.824;-0.196;2023-05-01T13:36:43;100783.47;;;16.83;55.19
68145;BME280;55400;51.824;-0.196;2023-05-01T13:40:43;100783.84;;;16.79;55.25
68145;BME280;55400;51.824;-0.196;2023-05-01T13:44:45;100777.67;;;16.85;55.26
68145;BME280;55400;51.824;-0.196;2023-05-01T13:48:43;100783.28;;;16.84;55.20
68145;BME280;55400;51.824;-0.196;2023-05-01T13:52:43;100783.28;;;16.95;55.10
68145;BME280;55400;51.824;-0.196;2023-05-01T13:56:43;100790.67;;;17.03;54.99
68145;BME280;55400;51.824;-0.196;2023-05-01T14:00:43;100799.3;;;17.05;54.81
68145;BME280;55400;51.824;-0.196;2023-05-01T14:04:43;100807.34;;;17.13;54.55
68145;BME280;55400;51.824;-0.196;2023-05-01T14:08:44;100813.9;;;17.19;54.55
68145;BME280;55400;51.824;-0.196;2023-05-01T14:12:43;100811.91;;;17.16;53.92
68145;BME280;55400;51.824;-0.196;2023-05-01T14:16:45;100811.91;;;17.17;53.23
68145;BME280;55400;51.824;-0.196;2023-05-01T14:20:44;100817.0;;;17.27;52.91
68145;BME280;55400;51.824;-0.196;2023-05-01T14:24:43;100813.95;;;17.36;52.66
68145;BME280;55400;51.824;-0.196;2023-05-01T14:28:44;100816.54999999999;;;17.29;52.52
68145;BME280;55400;51.824;-0.196;2023-05-01T14:32:44;100816.54999999999;;;17.20;52.70
68145;BME280;55400;51.824;-0.196;2023-05-01T14:36:43;100832.17;;;17.11;53.67
68145;BME280;55400;51.824;-0.196;2023-05-01T14:40:44;100828.88;;;17.09;53.67
68145;BME280;55400;51.824;-0.196;2023-05-01T14:44:43;100823.5;;;17.06;53.93
68145;BME280;55400;51.824;-0.196;2023-05-01T14:48:43;100820.98;;;17.05;54.35
68145;BME280;55400;51.824;-0.196;2023-05-01T14:52:43;100824.87;;;17.02;54.38
68145;BME280;55400;51.824;-0.196;2023-05-01T14:56:44;100824.87;;;16.97;54.38
68145;BME280;55400;51.824;-0.196;2023-05-01T15:00:43;100823.82;;;16.95;54.32
68145;BME280;55400;51.824;-0.196;2023-05-01T15:04:44;100824.58;;;16.91;54.19
68145;BME280;55400;51.824;-0.196;2023-05-01T15:12:44;100818.89;;;16.92;54.30
68145;BME280;55400;51.824;-0.196;2023-05-01T15:16:43;100816.94;;;16.93;54.42
68145;BME280;55400;51.824;-0.196;2023-05-01T15:20:44;100816.94;;;16.94;54.29
68145;BME280;55400;51.824;-0.196;2023-05-01T15:24:44;100819.28;;;17.05;54.52
68145;BME280;55400;51.824;-0.196;2023-05-01T15:28:44;100813.95;;;17.20;54.32
68145;BME280;55400;51.824;-0.196;2023-05-01T15:32:43;100813.95;;;17.44;54.32
68145;BME280;55400;51.824;-0.196;2023-05-01T15:36:44;100814.4;;;17.51;53.83
68145;BME280;55400;51.824;-0.196;2023-05-01T15:40:44;100817.3;;;17.62;53.72
68145;BME280;55400;51.824;-0.196;2023-05-01T15:44:44;100817.3;;;17.85;53.51
68145;BME280;55400;51.824;-0.196;2023-05-01T15:48:44;100814.86;;;18.16;53.40
68145;BME280;55400;51.824;-0.196;2023-05-01T15:52:44;100814.95;;;18.33;52.53
68145;BME280;55400;51.824;-0.196;2023-05-01T15:56:44;100811.13;;;18.35;51.87
68145;BME280;55400;51.824;-0.196;2023-05-01T16:00:44;100824.45999999999;;;18.37;51.39
68145;BME280;55400;51.824;-0.196;2023-05-01T16:04:44;100826.64;;;18.48;51.39
68145;BME280;55400;51.824;-0.196;2023-05-01T16:08:44;100833.06;;;18.38;51.33
68145;BME280;55400;51.824;-0.196;2023-05-01T16:12:44;100832.54;;;18.24;51.57
68145;BME280;55400;51.824;-0.196;2023-05-01T16:16:44;100839.22;;;18.30;51.49
68145;BME280;55400;51.824;-0.196;2023-05-01T16:20:44;100839.22;;;18.37;51.49
68145;BME280;55400;51.824;-0.196;2023-05-01T16:24:44;100838.01;;;18.59;51.37
68145;BME280;55400;51.824;-0.196;2023-05-01T16:28:44;100829.94;;;18.84;49.90
68145;BME280;55400;51.824;-0.196;2023-05-01T16:32:44;100838.11;;;18.96;49.90
68145;BME280;55400;51.824;-0.196;2023-05-01T16:36:44;100840.99;;;19.26;49.34
68145;BME280;55400;51.824;-0.196;2023-05-01T16:40:44;100838.81;;;19.50;48.59
68145;BME280;55400;51.824;-0.196;2023-05-01T16:44:44;100846.42;;;19.97;48.59
68145;BME280;55400;51.824;-0.196;2023-05-01T16:48:44;100846.42;;;20.31;47.73
68145;BME280;55400;51.824;-0.196;2023-05-01T16:52:44;100849.81;;;20.64;45.86
68145;BME280;55400;51.824;-0.196;2023-05-01T16:56:44;100853.74;;;20.76;45.86
68145;BME280;55400;51.824;-0.196;2023-05-01T17:00:44;100853.74;;;20.80;45.75
68145;BME280;55400;51.824;-0.196;2023-05-01T17:04:44;100855.22;;;20.98;45.65
68145;BME280;55400;51.824;-0.196;2023-05-01T17:08:44;100855.22;;;20.87;45.11
68145;BME280;55400;51.824;-0.196;2023-05-01T17:12:44;100867.96;;;20.65;44.88
68145;BME280;55400;51.824;-0.196;2023-05-01T17:16:44;100868.47;;;20.76;45.28
68145;BME280;55400;51.824;-0.196;2023-05-01T17:20:44;100869.55;;;20.98;45.28
68145;BME280;55400;51.824;-0.196;2023-05-01T17:24:44;100869.55;;;21.13;44.63
68145;BME280;55400;51.824;-0.196;2023-05-01T17:28:44;100865.77;;;21.16;44.25
68145;BME280;55400;51.824;-0.196;2023-05-01T17:32:44;100868.0;;;21.22;43.75
68145;BME280;55400;51.824;-0.196;2023-05-01T17:36:44;100868.92;;;21.31;42.98
68145;BME280;55400;51.824;-0.196;2023-05-01T17:44:44;100870.43;;;21.49;42.46
68145;BME280;55400;51.824;-0.196;2023-05-01T17:48:44;100874.0;;;21.38;42.62
68145;BME280;55400;51.824;-0.196;2023-05-01T17:52:44;100874.0;;;21.43;41.85
68145;BME280;55400;51.824;-0.196;2023-05-01T17:56:44;100876.87;;;21.47;41.13
68145;BME280;55400;51.824;-0.196;2023-05-01T18:00:44;100876.87;;;21.53;41.13
68145;BME280;55400;51.824;-0.196;2023-05-01T18:04:44;100879.49;;;21.31;40.82
68145;BME280;55400;51.824;-0.196;2023-05-01T18:08:44;100879.49;;;20.76;41.50
68145;BME280;55400;51.824;-0.196;2023-05-01T18:12:44;100890.48;;;20.62;42.07
68145;BME280;55400;51.824;-0.196;2023-05-01T18:16:44;100900.22;;;20.70;43.20
68145;BME280;55400;51.824;-0.196;2023-05-01T18:20:44;100900.22;;;20.45;43.40
68145;BME280;55400;51.824;-0.196;2023-05-01T18:24:44;100898.83;;;20.11;43.84
68145;BME280;55400;51.824;-0.196;2023-05-01T18:28:44;100904.0;;;19.86;45.82
68145;BME280;55400;51.824;-0.196;2023-05-01T18:32:44;100904.0;;;19.61;45.82
68145;BME280;55400;51.824;-0.196;2023-05-01T18:36:44;100917.02;;;19.41;46.82
68145;BME280;55400;51.824;-0.196;2023-05-01T18:40:45;100916.49;;;19.20;47.16
68145;BME280;55400;51.824;-0.196;2023-05-01T18:44:44;100924.59999999999;;;19.01;48.00
68145;BME280;55400;51.824;-0.196;2023-05-01T18:48:44;100932.54;;;18.84;48.00
68145;BME280;55400;51.824;-0.196;2023-05-01T18:52:44;100932.54;;;18.69;48.57
68145;BME280;55400;51.824;-0.196;2023-05-01T18:56:44;100946.17;;;18.54;49.37
68145;BME280;55400;51.824;-0.196;2023-05-01T19:00:44;100952.75;;;18.46;49.13
68145;BME280;55400;51.824;-0.196;2023-05-01T19:04:44;100952.75;;;18.31;49.30
68145;BME280;55400;51.824;-0.196;2023-05-01T19:08:44;100960.31;;;18.22;49.24
68145;BME280;55400;51.824;-0.196;2023-05-01T19:12:44;100962.73;;;18.12;49.57
68145;BME280;55400;51.824;-0.196;2023-05-01T19:16:44;100978.28;;;17.94;49.67
68145;BME280;55400;51.824;-0.196;2023-05-01T19:20:44;100984.23;;;17.76;50.14
68145;BME280;55400;51.824;-0.196;2023-05-01T19:24:44;100985.22;;;17.52;50.79
68145;BME280;55400;51.824;-0.196;2023-05-01T19:28:44;100994.98;;;17.39;51.20
68145;BME280;55400;51.824;-0.196;2023-05-01T19:32:44;101003.25;;;17.35;51.00
68145;BME280;55400;51.824;-0.196;2023-05-01T19:36:44;101000.11;;;17.30;51.00
68145;BME280;55400;51.824;-0.196;2023-05-01T19:40:44;101004.53;;;17.24;50.85
68145;BME280;55400;51.824;-0.196;2023-05-01T19:44:44;101007.34;;;17.16;51.24
68145;BME280;55400;51.824;-0.196;2023-05-01T19:48:44;101007.34;;;17.08;51.24
68145;BME280;55400;51.824;-0.196;2023-05-01T19:52:44;101013.81;;;16.98;51.62
68145;BME280;55400;51.824;-0.196;2023-05-01T19:56:44;101017.90999999999;;;16.86;52.02
68145;BME280;55400;51.824;-0.196;2023-05-01T20:00:44;101035.11;;;16.68;52.94
68145;BME280;55400;51.824;-0.196;2023-05-01T20:04:44;101046.61;;;16.59;52.94
68145;BME280;55400;51.824;-0.196;2023-05-01T20:08:44;101053.68;;;16.51;53.20
68145;BME280;55400;51.824;-0.196;2023-05-01T20:12:44;101063.22;;;16.45;53.35
68145;BME280;55400;51.824;-0.196;2023-05-01T20:16:44;101063.22;;;16.38;53.44
68145;BME280;55400;51.824;-0.196;2023-05-01T20:20:44;101078.12;;;16.34;53.57
68145;BME280;55400;51.824;-0.196;2023-05-01T20:24:44;101079.18;;;16.28;53.85
68145;BME280;55400;51.824;-0.196;2023-05-01T20:28:44;101083.48;;;16.20;54.04
68145;BME280;55400;51.824;-0.196;2023-05-01T20:32:45;101083.48;;;16.14;54.17
68145;BME280;55400;51.824;-0.196;2023-05-01T20:36:44;101087.84000000001;;;16.07;54.42
68145;BME280;55400;51.824;-0.196;2023-05-01T20:40:45;101096.75;;;15.99;54.56
68145;BME280;55400;51.824;-0.196;2023-05-01T20:44:44;101096.75;;;15.92;54.65
68145;BME280;55400;51.824;-0.196;2023-05-01T20:48:45;101099.56;;;15.89;54.90
68145;BME280;55400;51.824;-0.196;2023-05-01T20:52:44;101110.97;;;15.85;55.17
68145;BME280;55400;51.824;-0.196;2023-05-01T20:56:45;101113.84000000001;;;15.79;55.30
68145;BME280;55400;51.824;-0.196;2023-05-01T21:00:44;101119.38;;;15.65;55.45
68145;BME280;55400;51.824;-0.196;2023-05-01T21:04:45;101119.38;;;15.48;55.74
68145;BME280;55400;51.824;-0.196;2023-05-01T21:08:44;101129.85;;;15.43;56.53
68145;BME280;55400;51.824;-0.196;2023-05-01T21:12:45;101134.42;;;15.40;56.53
68145;BME280;55400;51.824;-0.196;2023-05-01T21:16:45;101135.29999999999;;;15.30;56.51
68145;BME280;55400;51.824;-0.196;2023-05-01T21:20:45;101137.01999999999;;;15.20;56.99
68145;BME280;55400;51.824;-0.196;2023-05-01T21:28:45;101149.11;;;15.16;56.86
68145;BME280;55400;51.824;-0.196;2023-05-01T21:32:45;101152.72;;;15.12;56.86
68145;BME280;55400;51.824;-0.196;2023-05-01T21:36:45;101157.05;;;15.09;56.86